sensor_id;sensor_type;location;lat;lon;timestamp;P1;durP1;ratioP1;P2;durP2;ratioP2
12476;SDS011;6303;51.504;6.300;2023-09-19T00:00:04;1.85;;;1.13;;
12476;SDS011;6303;51.504;6.300;2023-09-19T00:02:39;1.20;;;1.10;;
12476;SDS011;6303;51.504;6.300;2023-09-19T00:05:06;1.08;;;1.02;;
12476;SDS011;6303;51.504;6.300;2023-09-19T00:07:34;1.27;;;1.08;;
12476;SDS011;6303;51.504;6.300;2023-09-19T00:10:02;2.95;;;1.30;;
12476;SDS011;6303;51.504;6.300;2023-09-19T00:12:30;2.05;;;1.13;;
12476;SDS011;6303;51.504;6.300;2023-09-19T00:14:57;1.25;;;0.90;;
12476;SDS011;6303;51.504;6.300;2023-09-19T00:17:26;1.85;;;1.17;;
12476;SDS011;6303;51.504;6.300;2023-09-19T00:19:57;1.20;;;1.00;;
12476;SDS011;6303;51.504;6.300;2023-09-19T00:22:25;1.83;;;1.10;;
12476;SDS011;6303;51.504;6.300;2023-09-19T00:24:52;1.67;;;1.20;;
12476;SDS011;6303;51.504;6.300;2023-09-19T00:27:20;1.55;;;1.00;;
12476;SDS011;6303;51.504;6.300;2023-09-19T00:29:47;1.48;;;1.10;;
12476;SDS011;6303;51.504;6.300;2023-09-19T00:32:14;1.02;;;0.93;;
12476;SDS011;6303;51.504;6.300;2023-09-19T00:34:41;1.13;;;0.95;;
12476;SDS011;6303;51.504;6.300;2023-09-19T00:37:11;1.38;;;1.02;;
12476;SDS011;6303;51.504;6.300;2023-09-19T00:39:39;1.88;;;1.10;;
12476;SDS011;6303;51.504;6.300;2023-09-19T00:42:06;1.40;;;0.90;;
12476;SDS011;6303;51.504;6.300;2023-09-19T00:44:33;1.40;;;1.00;;
12476;SDS011;6303;51.504;6.300;2023-09-19T00:47:02;1.40;;;1.10;;
12476;SDS011;6303;51.504;6.300;2023-09-19T00:49:30;1.25;;;1.10;;
12476;SDS011;6303;51.504;6.300;2023-09-19T00:51:59;0.98;;;0.88;;
12476;SDS011;6303;51.504;6.300;2023-09-19T00:54:27;1.60;;;1.10;;
12476;SDS011;6303;51.504;6.300;2023-09-19T00:56:54;1.48;;;1.00;;
12476;SDS011;6303;51.504;6.300;2023-09-19T00:59:22;1.33;;;1.00;;
12476;SDS011;6303;51.504;6.300;2023-09-19T01:01:50;1.60;;;1.30;;
12476;SDS011;6303;51.504;6.300;2023-09-19T01:04:19;1.30;;;1.02;;
12476;SDS011;6303;51.504;6.300;2023-09-19T01:06:46;1.15;;;1.00;;
12476;SDS011;6303;51.504;6.300;2023-09-19T01:09:18;1.17;;;1.00;;
12476;SDS011;6303;51.504;6.300;2023-09-19T01:11:47;1.10;;;0.93;;
12476;SDS011;6303;51.504;6.300;2023-09-19T01:14:20;1.75;;;1.20;;
12476;SDS011;6303;51.504;6.300;2023-09-19T01:16:56;1.80;;;1.02;;
12476;SDS011;6303;51.504;6.300;2023-09-19T01:19:52;1.50;;;1.00;;
12476;SDS011;6303;51.504;6.300;2023-09-19T01:22:49;1.63;;;1.00;;
12476;SDS011;6303;51.504;6.300;2023-09-19T01:28:31;1.65;;;1.00;;
12476;SDS011;6303;51.504;6.300;2023-09-19T01:31:06;1.10;;;1.00;;
12476;SDS011;6303;51.504;6.300;2023-09-19T01:33:59;1.58;;;1.00;;
12476;SDS011;6303;51.504;6.300;2023-09-19T01:36:30;1.77;;;1.20;;
12476;SDS011;6303;51.504;6.300;2023-09-19T01:39:00;1.20;;;1.10;;
12476;SDS011;6303;51.504;6.300;2023-09-19T01:41:33;1.90;;;1.17;;
12476;SDS011;6303;51.504;6.300;2023-09-19T01:44:21;1.48;;;0.90;;
12476;SDS011;6303;51.504;6.300;2023-09-19T01:46:53;1.02;;;0.95;;
12476;SDS011;6303;51.504;6.300;2023-09-19T01:49:30;1.48;;;0.85;;
12476;SDS011;6303;51.504;6.300;2023-09-19T01:52:05;1.10;;;1.00;;
12476;SDS011;6303;51.504;6.300;2023-09-19T01:54:40;1.85;;;1.10;;
12476;SDS011;6303;51.504;6.300;2023-09-19T01:57:14;0.88;;;0.88;;
12476;SDS011;6303;51.504;6.300;2023-09-19T01:59:48;2.10;;;1.10;;
12476;SDS011;6303;51.504;6.300;2023-09-19T02:02:21;2.72;;;1.30;;
12476;SDS011;6303;51.504;6.300;2023-09-19T02:04:49;1.58;;;1.10;;
12476;SDS011;6303;51.504;6.300;2023-09-19T02:07:16;1.25;;;1.08;;
12476;SDS011;6303;51.504;6.300;2023-09-19T02:09:44;1.27;;;1.00;;
12476;SDS011;6303;51.504;6.300;2023-09-19T02:12:13;2.38;;;1.00;;
12476;SDS011;6303;51.504;6.300;2023-09-19T02:14:40;1.45;;;1.02;;
12476;SDS011;6303;51.504;6.300;2023-09-19T02:17:07;1.08;;;0.93;;
12476;SDS011;6303;51.504;6.300;2023-09-19T02:19:38;1.30;;;1.05;;
12476;SDS011;6303;51.504;6.300;2023-09-19T02:22:06;3.45;;;1.15;;
12476;SDS011;6303;51.504;6.300;2023-09-19T02:24:35;1.67;;;1.10;;
12476;SDS011;6303;51.504;6.300;2023-09-19T02:27:03;1.27;;;0.90;;
12476;SDS011;6303;51.504;6.300;2023-09-19T02:29:31;1.85;;;0.98;;
12476;SDS011;6303;51.504;6.300;2023-09-19T02:32:00;2.85;;;1.42;;
12476;SDS011;6303;51.504;6.300;2023-09-19T02:34:28;1.50;;;0.98;;
12476;SDS011;6303;51.504;6.300;2023-09-19T02:36:57;1.50;;;1.08;;
12476;SDS011;6303;51.504;6.300;2023-09-19T02:39:24;1.58;;;0.90;;
12476;SDS011;6303;51.504;6.300;2023-09-19T02:41:51;2.05;;;0.90;;
12476;SDS011;6303;51.504;6.300;2023-09-19T02:44:18;1.58;;;1.10;;
12476;SDS011;6303;51.504;6.300;2023-09-19T02:46:46;1.33;;;1.00;;
12476;SDS011;6303;51.504;6.300;2023-09-19T02:49:13;1.23;;;0.98;;
12476;SDS011;6303;51.504;6.300;2023-09-19T02:51:42;1.83;;;1.10;;
12476;SDS011;6303;51.504;6.300;2023-09-19T02:54:10;2.70;;;1.20;;
12476;SDS011;6303;51.504;6.300;2023-09-19T02:56:38;1.77;;;1.00;;
12476;SDS011;6303;51.504;6.300;2023-09-19T02:59:05;1.77;;;1.20;;
12476;SDS011;6303;51.504;6.300;2023-09-19T03:01:35;1.13;;;0.93;;
12476;SDS011;6303;51.504;6.300;2023-09-19T03:04:03;2.10;;;1.30;;
12476;SDS011;6303;51.504;6.300;2023-09-19T03:06:33;1.00;;;0.90;;
12476;SDS011;6303;51.504;6.300;2023-09-19T03:09:00;2.03;;;1.10;;
12476;SDS011;6303;51.504;6.300;2023-09-19T03:11:32;1.52;;;1.20;;
12476;SDS011;6303;51.504;6.300;2023-09-19T03:14:00;1.52;;;1.00;;
12476;SDS011;6303;51.504;6.300;2023-09-19T03:16:28;1.67;;;1.02;;
12476;SDS011;6303;51.504;6.300;2023-09-19T03:18:57;1.90;;;1.15;;
12476;SDS011;6303;51.504;6.300;2023-09-19T03:21:25;1.60;;;1.10;;
12476;SDS011;6303;51.504;6.300;2023-09-19T03:23:56;1.40;;;1.05;;
12476;SDS011;6303;51.504;6.300;2023-09-19T03:26:23;2.00;;;1.17;;
12476;SDS011;6303;51.504;6.300;2023-09-19T03:28:54;1.80;;;1.20;;
12476;SDS011;6303;51.504;6.300;2023-09-19T03:31:21;1.15;;;1.02;;
12476;SDS011;6303;51.504;6.300;2023-09-19T03:33:48;1.90;;;1.30;;
12476;SDS011;6303;51.504;6.300;2023-09-19T03:36:15;1.60;;;1.17;;
12476;SDS011;6303;51.504;6.300;2023-09-19T03:38:42;1.38;;;1.10;;
12476;SDS011;6303;51.504;6.300;2023-09-19T03:41:09;1.38;;;1.02;;
12476;SDS011;6303;51.504;6.300;2023-09-19T03:43:39;2.90;;;1.10;;
12476;SDS011;6303;51.504;6.300;2023-09-19T03:46:08;1.35;;;1.10;;
12476;SDS011;6303;51.504;6.300;2023-09-19T03:48:39;1.95;;;1.02;;
12476;SDS011;6303;51.504;6.300;2023-09-19T03:51:06;1.95;;;1.05;;
12476;SDS011;6303;51.504;6.300;2023-09-19T03:53:33;1.73;;;1.23;;
12476;SDS011;6303;51.504;6.300;2023-09-19T03:56:01;1.58;;;1.13;;
12476;SDS011;6303;51.504;6.300;2023-09-19T03:58:32;2.00;;;1.00;;
12476;SDS011;6303;51.504;6.300;2023-09-19T04:01:03;2.05;;;1.02;;
12476;SDS011;6303;51.504;6.300;2023-09-19T04:03:33;1.60;;;1.13;;
12476;SDS011;6303;51.504;6.300;2023-09-19T04:06:11;1.50;;;1.00;;
12476;SDS011;6303;51.504;6.300;2023-09-19T04:08:38;1.40;;;1.20;;
12476;SDS011;6303;51.504;6.300;2023-09-19T04:11:05;0.98;;;0.85;;
12476;SDS011;6303;51.504;6.300;2023-09-19T04:13:33;1.95;;;1.30;;
12476;SDS011;6303;51.504;6.300;2023-09-19T04:16:00;2.42;;;1.30;;
12476;SDS011;6303;51.504;6.300;2023-09-19T04:18:27;1.02;;;0.90;;
12476;SDS011;6303;51.504;6.300;2023-09-19T04:20:57;2.83;;;1.20;;
12476;SDS011;6303;51.504;6.300;2023-09-19T04:23:26;1.80;;;1.10;;
12476;SDS011;6303;51.504;6.300;2023-09-19T04:25:53;0.95;;;0.82;;
12476;SDS011;6303;51.504;6.300;2023-09-19T04:28:20;1.50;;;1.20;;
12476;SDS011;6303;51.504;6.300;2023-09-19T04:30:48;1.63;;;1.10;;
12476;SDS011;6303;51.504;6.300;2023-09-19T04:33:15;1.63;;;1.20;;
12476;SDS011;6303;51.504;6.300;2023-09-19T04:35:42;1.15;;;0.95;;
12476;SDS011;6303;51.504;6.300;2023-09-19T04:38:11;3.05;;;1.10;;
12476;SDS011;6303;51.504;6.300;2023-09-19T04:40:39;1.55;;;1.00;;
12476;SDS011;6303;51.504;6.300;2023-09-19T04:43:06;1.00;;;0.95;;
12476;SDS011;6303;51.504;6.300;2023-09-19T04:45:33;1.15;;;0.95;;
12476;SDS011;6303;51.504;6.300;2023-09-19T04:48:00;2.03;;;1.30;;
12476;SDS011;6303;51.504;6.300;2023-09-19T04:50:27;2.15;;;1.30;;
12476;SDS011;6303;51.504;6.300;2023-09-19T04:52:55;1.42;;;1.20;;
12476;SDS011;6303;51.504;6.300;2023-09-19T04:55:23;3.67;;;1.40;;
12476;SDS011;6303;51.504;6.300;2023-09-19T04:57:50;2.67;;;1.40;;
12476;SDS011;6303;51.504;6.300;2023-09-19T05:00:19;3.63;;;1.50;;
12476;SDS011;6303;51.504;6.300;2023-09-19T05:02:49;4.30;;;1.75;;
12476;SDS011;6303;51.504;6.300;2023-09-19T05:05:17;3.05;;;1.40;;
12476;SDS011;6303;51.504;6.300;2023-09-19T05:07:45;4.13;;;1.50;;
12476;SDS011;6303;51.504;6.300;2023-09-19T05:10:12;3.85;;;1.67;;
12476;SDS011;6303;51.504;6.300;2023-09-19T05:12:42;6.38;;;1.77;;
12476;SDS011;6303;51.504;6.300;2023-09-19T05:15:13;7.97;;;1.80;;
12476;SDS011;6303;51.504;6.300;2023-09-19T05:17:42;8.25;;;2.20;;
12476;SDS011;6303;51.504;6.300;2023-09-19T05:20:14;12.70;;;3.15;;
12476;SDS011;6303;51.504;6.300;2023-09-19T05:22:50;15.32;;;3.20;;
12476;SDS011;6303;51.504;6.300;2023-09-19T05:25:17;10.57;;;3.53;;
12476;SDS011;6303;51.504;6.300;2023-09-19T05:27:47;8.88;;;3.20;;
12476;SDS011;6303;51.504;6.300;2023-09-19T05:30:15;7.68;;;2.60;;
12476;SDS011;6303;51.504;6.300;2023-09-19T05:32:43;9.50;;;2.50;;
12476;SDS011;6303;51.504;6.300;2023-09-19T05:35:10;6.80;;;2.40;;
12476;SDS011;6303;51.504;6.300;2023-09-19T05:37:38;7.78;;;2.22;;
12476;SDS011;6303;51.504;6.300;2023-09-19T05:40:05;6.18;;;1.63;;
12476;SDS011;6303;51.504;6.300;2023-09-19T05:42:35;6.15;;;2.28;;
12476;SDS011;6303;51.504;6.300;2023-09-19T05:45:05;5.03;;;2.30;;
12476;SDS011;6303;51.504;6.300;2023-09-19T05:47:33;4.18;;;1.88;;
12476;SDS011;6303;51.504;6.300;2023-09-19T05:50:00;6.47;;;2.17;;
12476;SDS011;6303;51.504;6.300;2023-09-19T05:52:28;6.80;;;2.17;;
12476;SDS011;6303;51.504;6.300;2023-09-19T05:54:55;3.95;;;2.08;;
12476;SDS011;6303;51.504;6.300;2023-09-19T05:57:22;4.13;;;2.13;;
12476;SDS011;6303;51.504;6.300;2023-09-19T05:59:50;4.75;;;2.05;;
12476;SDS011;6303;51.504;6.300;2023-09-19T06:02:18;4.40;;;1.65;;
12476;SDS011;6303;51.504;6.300;2023-09-19T06:04:46;3.72;;;1.80;;
12476;SDS011;6303;51.504;6.300;2023-09-19T06:07:13;5.68;;;1.90;;
12476;SDS011;6303;51.504;6.300;2023-09-19T06:09:41;3.88;;;1.73;;
12476;SDS011;6303;51.504;6.300;2023-09-19T06:12:08;3.90;;;1.88;;
12476;SDS011;6303;51.504;6.300;2023-09-19T06:14:39;5.38;;;1.80;;
12476;SDS011;6303;51.504;6.300;2023-09-19T06:17:06;6.30;;;2.03;;
12476;SDS011;6303;51.504;6.300;2023-09-19T06:19:35;6.40;;;2.35;;
12476;SDS011;6303;51.504;6.300;2023-09-19T06:22:02;5.68;;;2.33;;
12476;SDS011;6303;51.504;6.300;2023-09-19T06:24:29;7.30;;;2.05;;
12476;SDS011;6303;51.504;6.300;2023-09-19T06:26:57;6.30;;;2.50;;
12476;SDS011;6303;51.504;6.300;2023-09-19T06:29:27;6.35;;;2.33;;
12476;SDS011;6303;51.504;6.300;2023-09-19T06:31:54;6.00;;;2.40;;
12476;SDS011;6303;51.504;6.300;2023-09-19T06:34:21;5.43;;;2.10;;
12476;SDS011;6303;51.504;6.300;2023-09-19T06:36:51;6.68;;;2.28;;
12476;SDS011;6303;51.504;6.300;2023-09-19T06:39:20;6.30;;;2.38;;
12476;SDS011;6303;51.504;6.300;2023-09-19T06:41:48;9.82;;;2.50;;
12476;SDS011;6303;51.504;6.300;2023-09-19T06:44:16;4.85;;;2.30;;
12476;SDS011;6303;51.504;6.300;2023-09-19T06:46:43;6.43;;;2.17;;
12476;SDS011;6303;51.504;6.300;2023-09-19T06:49:11;7.25;;;2.38;;
12476;SDS011;6303;51.504;6.300;2023-09-19T06:51:40;6.97;;;2.40;;
12476;SDS011;6303;51.504;6.300;2023-09-19T06:54:10;5.55;;;2.10;;
12476;SDS011;6303;51.504;6.300;2023-09-19T06:56:38;5.93;;;2.22;;
12476;SDS011;6303;51.504;6.300;2023-09-19T06:59:07;8.93;;;2.28;;
12476;SDS011;6303;51.504;6.300;2023-09-19T07:01:34;5.57;;;2.25;;
12476;SDS011;6303;51.504;6.300;2023-09-19T07:04:03;8.93;;;2.50;;
12476;SDS011;6303;51.504;6.300;2023-09-19T07:06:30;5.22;;;2.33;;
12476;SDS011;6303;51.504;6.300;2023-09-19T07:08:58;7.93;;;2.20;;
12476;SDS011;6303;51.504;6.300;2023-09-19T07:11:27;9.75;;;2.30;;
12476;SDS011;6303;51.504;6.300;2023-09-19T07:13:56;5.25;;;2.00;;
12476;SDS011;6303;51.504;6.300;2023-09-19T07:16:24;6.22;;;2.05;;
12476;SDS011;6303;51.504;6.300;2023-09-19T07:18:54;5.68;;;2.35;;
12476;SDS011;6303;51.504;6.300;2023-09-19T07:21:22;6.88;;;2.00;;
12476;SDS011;6303;51.504;6.300;2023-09-19T07:23:50;5.80;;;2.10;;
12476;SDS011;6303;51.504;6.300;2023-09-19T07:26:18;5.95;;;2.47;;
12476;SDS011;6303;51.504;6.300;2023-09-19T07:28:46;7.05;;;2.42;;
12476;SDS011;6303;51.504;6.300;2023-09-19T07:31:13;8.18;;;2.03;;
12476;SDS011;6303;51.504;6.300;2023-09-19T07:33:40;8.88;;;2.28;;
12476;SDS011;6303;51.504;6.300;2023-09-19T07:36:10;7.88;;;2.20;;
12476;SDS011;6303;51.504;6.300;2023-09-19T07:38:38;6.35;;;2.15;;
12476;SDS011;6303;51.504;6.300;2023-09-19T07:41:06;8.20;;;2.40;;
12476;SDS011;6303;51.504;6.300;2023-09-19T07:43:34;7.25;;;2.25;;
12476;SDS011;6303;51.504;6.300;2023-09-19T07:46:05;6.57;;;2.10;;
12476;SDS011;6303;51.504;6.300;2023-09-19T07:48:34;5.22;;;2.28;;
12476;SDS011;6303;51.504;6.300;2023-09-19T07:51:03;7.80;;;2.15;;
12476;SDS011;6303;51.504;6.300;2023-09-19T07:53:30;6.47;;;2.30;;
12476;SDS011;6303;51.504;6.300;2023-09-19T07:56:01;7.25;;;2.00;;
12476;SDS011;6303;51.504;6.300;2023-09-19T07:58:29;7.70;;;2.15;;
12476;SDS011;6303;51.504;6.300;2023-09-19T08:01:02;6.60;;;2.25;;
12476;SDS011;6303;51.504;6.300;2023-09-19T08:03:31;5.10;;;2.10;;
12476;SDS011;6303;51.504;6.300;2023-09-19T08:05:58;5.95;;;2.22;;
12476;SDS011;6303;51.504;6.300;2023-09-19T08:08:26;6.65;;;2.22;;
12476;SDS011;6303;51.504;6.300;2023-09-19T08:10:53;9.85;;;2.30;;
12476;SDS011;6303;51.504;6.300;2023-09-19T08:13:21;6.32;;;2.20;;
12476;SDS011;6303;51.504;6.300;2023-09-19T08:15:49;7.05;;;1.90;;
12476;SDS011;6303;51.504;6.300;2023-09-19T08:18:18;7.68;;;1.95;;
12476;SDS011;6303;51.504;6.300;2023-09-19T08:20:50;5.82;;;2.00;;
12476;SDS011;6303;51.504;6.300;2023-09-19T08:23:18;6.03;;;2.00;;
12476;SDS011;6303;51.504;6.300;2023-09-19T08:25:45;7.68;;;2.20;;
12476;SDS011;6303;51.504;6.300;2023-09-19T08:28:12;4.45;;;1.83;;
12476;SDS011;6303;51.504;6.300;2023-09-19T08:30:44;8.10;;;2.20;;
12476;SDS011;6303;51.504;6.300;2023-09-19T08:33:12;7.78;;;2.20;;
12476;SDS011;6303;51.504;6.300;2023-09-19T08:35:40;6.15;;;1.90;;
12476;SDS011;6303;51.504;6.300;2023-09-19T08:38:09;7.30;;;2.47;;
12476;SDS011;6303;51.504;6.300;2023-09-19T08:40:37;5.60;;;2.20;;
12476;SDS011;6303;51.504;6.300;2023-09-19T08:43:05;6.22;;;2.05;;
12476;SDS011;6303;51.504;6.300;2023-09-19T08:45:33;8.77;;;2.20;;
12476;SDS011;6303;51.504;6.300;2023-09-19T08:48:05;6.07;;;2.42;;
12476;SDS011;6303;51.504;6.300;2023-09-19T08:50:43;6.03;;;2.10;;
12476;SDS011;6303;51.504;6.300;2023-09-19T08:53:21;8.80;;;2.35;;
12476;SDS011;6303;51.504;6.300;2023-09-19T08:55:53;6.85;;;2.20;;
12476;SDS011;6303;51.504;6.300;2023-09-19T08:58:24;7.70;;;2.35;;
12476;SDS011;6303;51.504;6.300;2023-09-19T09:00:54;7.70;;;2.40;;
12476;SDS011;6303;51.504;6.300;2023-09-19T09:03:25;3.95;;;1.95;;
12476;SDS011;6303;51.504;6.300;2023-09-19T09:05:56;6.70;;;2.22;;
12476;SDS011;6303;51.504;6.300;2023-09-19T09:08:25;8.95;;;2.78;;
12476;SDS011;6303;51.504;6.300;2023-09-19T09:10:52;9.48;;;2.35;;
12476;SDS011;6303;51.504;6.300;2023-09-19T09:13:20;6.32;;;1.95;;
12476;SDS011;6303;51.504;6.300;2023-09-19T09:15:48;7.13;;;2.20;;
12476;SDS011;6303;51.504;6.300;2023-09-19T09:18:15;9.90;;;2.70;;
12476;SDS011;6303;51.504;6.300;2023-09-19T09:20:43;7.20;;;2.50;;
12476;SDS011;6303;51.504;6.300;2023-09-19T09:23:11;4.97;;;2.00;;
12476;SDS011;6303;51.504;6.300;2023-09-19T09:25:52;8.35;;;2.75;;
12476;SDS011;6303;51.504;6.300;2023-09-19T09:28:22;7.35;;;2.25;;
12476;SDS011;6303;51.504;6.300;2023-09-19T09:30:50;9.00;;;2.40;;
12476;SDS011;6303;51.504;6.300;2023-09-19T09:33:17;6.30;;;2.17;;
12476;SDS011;6303;51.504;6.300;2023-09-19T09:35:51;6.53;;;2.13;;
12476;SDS011;6303;51.504;6.300;2023-09-19T09:38:22;5.90;;;2.42;;
12476;SDS011;6303;51.504;6.300;2023-09-19T09:40:54;6.28;;;2.22;;
12476;SDS011;6303;51.504;6.300;2023-09-19T09:43:27;5.97;;;2.20;;
12476;SDS011;6303;51.504;6.300;2023-09-19T09:46:06;9.30;;;2.38;;
12476;SDS011;6303;51.504;6.300;2023-09-19T09:48:58;5.45;;;1.98;;
12476;SDS011;6303;51.504;6.300;2023-09-19T09:51:45;6.10;;;2.55;;
12476;SDS011;6303;51.504;6.300;2023-09-19T09:54:23;4.95;;;2.20;;
12476;SDS011;6303;51.504;6.300;2023-09-19T09:56:54;7.30;;;2.50;;
12476;SDS011;6303;51.504;6.300;2023-09-19T10:02:15;7.57;;;2.38;;
12476;SDS011;6303;51.504;6.300;2023-09-19T10:04:48;7.28;;;2.15;;
12476;SDS011;6303;51.504;6.300;2023-09-19T10:07:25;4.80;;;2.10;;
12476;SDS011;6303;51.504;6.300;2023-09-19T10:09:57;8.18;;;2.65;;
12476;SDS011;6303;51.504;6.300;2023-09-19T10:12:41;6.45;;;2.47;;
12476;SDS011;6303;51.504;6.300;2023-09-19T10:15:11;6.32;;;2.63;;
12476;SDS011;6303;51.504;6.300;2023-09-19T10:17:41;7.55;;;2.33;;
12476;SDS011;6303;51.504;6.300;2023-09-19T10:20:12;6.45;;;2.10;;
12476;SDS011;6303;51.504;6.300;2023-09-19T10:23:05;7.90;;;2.20;;
12476;SDS011;6303;51.504;6.300;2023-09-19T10:25:39;7.88;;;2.30;;
12476;SDS011;6303;51.504;6.300;2023-09-19T10:28:08;4.65;;;2.08;;
12476;SDS011;6303;51.504;6.300;2023-09-19T10:30:37;4.70;;;2.13;;
12476;SDS011;6303;51.504;6.300;2023-09-19T10:33:11;4.50;;;1.95;;
12476;SDS011;6303;51.504;6.300;2023-09-19T10:35:39;7.43;;;2.28;;
12476;SDS011;6303;51.504;6.300;2023-09-19T10:38:09;5.10;;;2.10;;
12476;SDS011;6303;51.504;6.300;2023-09-19T10:40:38;5.38;;;2.42;;
12476;SDS011;6303;51.504;6.300;2023-09-19T10:43:12;6.38;;;2.17;;
12476;SDS011;6303;51.504;6.300;2023-09-19T10:45:42;5.78;;;2.25;;
12476;SDS011;6303;51.504;6.300;2023-09-19T10:48:12;6.28;;;2.28;;
12476;SDS011;6303;51.504;6.300;2023-09-19T10:50:42;5.38;;;2.05;;
12476;SDS011;6303;51.504;6.300;2023-09-19T10:53:12;5.43;;;2.00;;
12476;SDS011;6303;51.504;6.300;2023-09-19T10:55:41;9.38;;;2.60;;
12476;SDS011;6303;51.504;6.300;2023-09-19T10:58:25;5.47;;;2.20;;
12476;SDS011;6303;51.504;6.300;2023-09-19T11:00:54;5.18;;;2.00;;
12476;SDS011;6303;51.504;6.300;2023-09-19T11:03:26;4.32;;;2.00;;
12476;SDS011;6303;51.504;6.300;2023-09-19T11:06:03;6.68;;;2.03;;
12476;SDS011;6303;51.504;6.300;2023-09-19T11:11:45;5.03;;;2.13;;
12476;SDS011;6303;51.504;6.300;2023-09-19T11:14:29;4.72;;;2.17;;
12476;SDS011;6303;51.504;6.300;2023-09-19T11:20:23;7.63;;;2.55;;
12476;SDS011;6303;51.504;6.300;2023-09-19T11:23:22;6.43;;;2.10;;
12476;SDS011;6303;51.504;6.300;2023-09-19T11:25:53;6.22;;;2.47;;
12476;SDS011;6303;51.504;6.300;2023-09-19T11:28:30;5.82;;;1.90;;
12476;SDS011;6303;51.504;6.300;2023-09-19T11:30:59;6.03;;;2.20;;
12476;SDS011;6303;51.504;6.300;2023-09-19T11:33:46;8.48;;;2.13;;
12476;SDS011;6303;51.504;6.300;2023-09-19T11:36:15;6.07;;;2.20;;
12476;SDS011;6303;51.504;6.300;2023-09-19T11:39:00;10.77;;;2.20;;
12476;SDS011;6303;51.504;6.300;2023-09-19T11:41:37;6.80;;;2.13;;
12476;SDS011;6303;51.504;6.300;2023-09-19T11:47:05;4.78;;;2.00;;
12476;SDS011;6303;51.504;6.300;2023-09-19T11:49:34;6.63;;;2.08;;
12476;SDS011;6303;51.504;6.300;2023-09-19T11:52:06;5.22;;;1.92;;
12476;SDS011;6303;51.504;6.300;2023-09-19T11:54:34;4.85;;;1.88;;
12476;SDS011;6303;51.504;6.300;2023-09-19T11:57:05;7.07;;;2.20;;
12476;SDS011;6303;51.504;6.300;2023-09-19T11:59:35;7.07;;;2.33;;
12476;SDS011;6303;51.504;6.300;2023-09-19T12:02:06;6.43;;;2.20;;
12476;SDS011;6303;51.504;6.300;2023-09-19T12:04:37;6.43;;;2.03;;
12476;SDS011;6303;51.504;6.300;2023-09-19T12:07:07;7.35;;;2.03;;
12476;SDS011;6303;51.504;6.300;2023-09-19T12:09:40;6.30;;;2.05;;
12476;SDS011;6303;51.504;6.300;2023-09-19T12:12:09;4.82;;;1.77;;
12476;SDS011;6303;51.504;6.300;2023-09-19T12:14:38;4.85;;;1.83;;
12476;SDS011;6303;51.504;6.300;2023-09-19T12:17:10;11.43;;;2.30;;
12476;SDS011;6303;51.504;6.300;2023-09-19T12:19:38;9.55;;;2.33;;
12476;SDS011;6303;51.504;6.300;2023-09-19T12:22:05;5.75;;;1.95;;
12476;SDS011;6303;51.504;6.300;2023-09-19T12:24:34;7.47;;;2.10;;
12476;SDS011;6303;51.504;6.300;2023-09-19T12:27:04;5.68;;;2.15;;
12476;SDS011;6303;51.504;6.300;2023-09-19T12:29:32;6.60;;;1.90;;
12476;SDS011;6303;51.504;6.300;2023-09-19T12:32:09;7.20;;;2.05;;
12476;SDS011;6303;51.504;6.300;2023-09-19T12:34:38;3.28;;;1.55;;
12476;SDS011;6303;51.504;6.300;2023-09-19T12:37:08;3.60;;;1.80;;
12476;SDS011;6303;51.504;6.300;2023-09-19T12:39:42;5.97;;;1.70;;
12476;SDS011;6303;51.504;6.300;2023-09-19T12:42:14;4.90;;;1.88;;
12476;SDS011;6303;51.504;6.300;2023-09-19T12:44:42;6.35;;;1.88;;
12476;SDS011;6303;51.504;6.300;2023-09-19T12:47:13;3.25;;;1.63;;
12476;SDS011;6303;51.504;6.300;2023-09-19T12:52:38;3.70;;;1.50;;
12476;SDS011;6303;51.504;6.300;2023-09-19T12:55:06;3.42;;;1.70;;
12476;SDS011;6303;51.504;6.300;2023-09-19T12:57:36;4.95;;;1.60;;
12476;SDS011;6303;51.504;6.300;2023-09-19T13:00:04;4.53;;;1.63;;
12476;SDS011;6303;51.504;6.300;2023-09-19T13:02:37;3.65;;;1.60;;
12476;SDS011;6303;51.504;6.300;2023-09-19T13:05:52;2.75;;;1.50;;
12476;SDS011;6303;51.504;6.300;2023-09-19T13:08:24;2.28;;;1.25;;
12476;SDS011;6303;51.504;6.300;2023-09-19T13:11:02;1.67;;;1.20;;
12476;SDS011;6303;51.504;6.300;2023-09-19T13:13:32;3.30;;;1.30;;
12476;SDS011;6303;51.504;6.300;2023-09-19T13:16:01;2.95;;;1.30;;
12476;SDS011;6303;51.504;6.300;2023-09-19T13:18:31;3.75;;;1.60;;
12476;SDS011;6303;51.504;6.300;2023-09-19T13:21:07;4.18;;;1.70;;
12476;SDS011;6303;51.504;6.300;2023-09-19T13:23:40;2.65;;;1.30;;
12476;SDS011;6303;51.504;6.300;2023-09-19T13:26:08;3.28;;;1.38;;
12476;SDS011;6303;51.504;6.300;2023-09-19T13:28:37;3.90;;;1.23;;
12476;SDS011;6303;51.504;6.300;2023-09-19T13:31:04;1.75;;;1.20;;
12476;SDS011;6303;51.504;6.300;2023-09-19T13:33:33;3.90;;;1.40;;
12476;SDS011;6303;51.504;6.300;2023-09-19T13:36:01;2.63;;;1.40;;
12476;SDS011;6303;51.504;6.300;2023-09-19T13:38:29;2.42;;;1.38;;
12476;SDS011;6303;51.504;6.300;2023-09-19T13:40:56;2.78;;;1.30;;
12476;SDS011;6303;51.504;6.300;2023-09-19T13:43:26;3.58;;;1.40;;
12476;SDS011;6303;51.504;6.300;2023-09-19T13:45:54;2.13;;;1.02;;
12476;SDS011;6303;51.504;6.300;2023-09-19T13:48:22;2.05;;;1.10;;
12476;SDS011;6303;51.504;6.300;2023-09-19T13:50:51;2.17;;;1.00;;
12476;SDS011;6303;51.504;6.300;2023-09-19T13:53:18;2.10;;;1.20;;
12476;SDS011;6303;51.504;6.300;2023-09-19T13:55:46;1.90;;;1.13;;
12476;SDS011;6303;51.504;6.300;2023-09-19T13:58:13;1.10;;;1.00;;
12476;SDS011;6303;51.504;6.300;2023-09-19T14:00:41;2.00;;;1.20;;
12476;SDS011;6303;51.504;6.300;2023-09-19T14:03:08;2.13;;;1.00;;
12476;SDS011;6303;51.504;6.300;2023-09-19T14:05:36;2.03;;;1.10;;
12476;SDS011;6303;51.504;6.300;2023-09-19T14:08:04;1.70;;;1.00;;
12476;SDS011;6303;51.504;6.300;2023-09-19T14:10:32;1.85;;;1.15;;
12476;SDS011;6303;51.504;6.300;2023-09-19T14:13:00;3.00;;;1.23;;
12476;SDS011;6303;51.504;6.300;2023-09-19T14:15:27;2.17;;;1.30;;
12476;SDS011;6303;51.504;6.300;2023-09-19T14:17:56;1.23;;;0.95;;
12476;SDS011;6303;51.504;6.300;2023-09-19T14:20:24;1.15;;;0.95;;
12476;SDS011;6303;51.504;6.300;2023-09-19T14:22:53;1.58;;;1.20;;
12476;SDS011;6303;51.504;6.300;2023-09-19T14:25:21;1.58;;;0.90;;
12476;SDS011;6303;51.504;6.300;2023-09-19T14:27:48;2.33;;;1.35;;
12476;SDS011;6303;51.504;6.300;2023-09-19T14:30:15;1.50;;;0.90;;
12476;SDS011;6303;51.504;6.300;2023-09-19T14:32:42;2.28;;;1.02;;
12476;SDS011;6303;51.504;6.300;2023-09-19T14:35:09;1.38;;;1.00;;
12476;SDS011;6303;51.504;6.300;2023-09-19T14:37:40;5.50;;;1.15;;
12476;SDS011;6303;51.504;6.300;2023-09-19T14:40:07;1.80;;;0.93;;
12476;SDS011;6303;51.504;6.300;2023-09-19T14:42:39;2.15;;;1.08;;
12476;SDS011;6303;51.504;6.300;2023-09-19T14:45:06;1.50;;;0.98;;
12476;SDS011;6303;51.504;6.300;2023-09-19T14:47:34;3.97;;;1.45;;
12476;SDS011;6303;51.504;6.300;2023-09-19T14:50:02;3.92;;;0.77;;
12476;SDS011;6303;51.504;6.300;2023-09-19T14:52:31;1.67;;;0.77;;
12476;SDS011;6303;51.504;6.300;2023-09-19T14:54:59;2.83;;;1.10;;
12476;SDS011;6303;51.504;6.300;2023-09-19T14:57:27;1.67;;;1.05;;
12476;SDS011;6303;51.504;6.300;2023-09-19T14:59:56;2.15;;;1.08;;
12476;SDS011;6303;51.504;6.300;2023-09-19T15:02:23;3.33;;;1.20;;
12476;SDS011;6303;51.504;6.300;2023-09-19T15:04:51;1.73;;;0.90;;
12476;SDS011;6303;51.504;6.300;2023-09-19T15:07:18;0.98;;;0.75;;
12476;SDS011;6303;51.504;6.300;2023-09-19T15:09:45;1.80;;;1.20;;
12476;SDS011;6303;51.504;6.300;2023-09-19T15:12:12;1.20;;;1.00;;
12476;SDS011;6303;51.504;6.300;2023-09-19T15:14:40;2.60;;;1.00;;
12476;SDS011;6303;51.504;6.300;2023-09-19T15:17:09;1.58;;;1.00;;
12476;SDS011;6303;51.504;6.300;2023-09-19T15:19:36;2.08;;;1.30;;
12476;SDS011;6303;51.504;6.300;2023-09-19T15:22:04;1.48;;;0.98;;
12476;SDS011;6303;51.504;6.300;2023-09-19T15:24:32;2.75;;;0.82;;
12476;SDS011;6303;51.504;6.300;2023-09-19T15:26:59;1.73;;;0.90;;
12476;SDS011;6303;51.504;6.300;2023-09-19T15:29:26;1.50;;;0.85;;
12476;SDS011;6303;51.504;6.300;2023-09-19T15:31:55;1.52;;;0.70;;
12476;SDS011;6303;51.504;6.300;2023-09-19T15:34:29;0.88;;;0.80;;